Time;durP1;ratioP1;P1;durP2;ratioP2;P2;SDS_P1;SDS_P2;PMS_P1;PMS_P2;Temp;Humidity;BMP_temperature;BMP_pressure;BME280_temperature;BME280_humidity;BME280_pressure;Samples;Min_cycle;Max_cycle;Signal;HPM_P1;HPM_P2
2021/09/01 00:01:05;;;;;;;26.45;11.75;;;;;;;11.40;97.08;101415.44;4963101;28;20028;-67
2021/09/01 00:03:31;;;;;;;33.78;14.90;;;;;;;11.32;97.70;101414.81;4960222;28;20397;-68
2021/09/01 00:05:57;;;;;;;37.75;16.02;;;;;;;11.26;98.02;101411.91;4960142;28;20038;-68
2021/09/01 00:08:23;;;;;;;32.17;15.85;;;;;;;11.23;98.36;101417.72;4963868;28;20047;-67
2021/09/01 00:10:49;;;;;;;26.05;16.05;;;;;;;11.12;98.95;101405.66;4960868;28;20387;-67
2021/09/01 00:13:15;;;;;;;44.20;18.10;;;;;;;11.10;99.31;101404.22;4961767;28;20043;-67
2021/09/01 00:15:41;;;;;;;48.38;20.00;;;;;;;11.08;99.53;101403.59;4959602;28;20078;-67
2021/09/01 00:18:07;;;;;;;38.78;18.73;;;;;;;11.02;99.91;101405.22;4953182;28;20452;-66
2021/09/01 00:20:32;;;;;;;33.55;19.30;;;;;;;11.00;100.00;101404.59;4958267;28;20568;-68
2021/09/01 00:22:58;;;;;;;39.75;19.58;;;;;;;10.99;100.00;101405.63;4954376;28;20547;-65
2021/09/01 00:25:24;;;;;;;37.38;19.80;;;;;;;10.99;100.00;101394.84;4959645;28;20488;-66
2021/09/01 00:27:49;;;;;;;34.95;18.92;;;;;;;10.98;100.00;101401.28;4955989;28;20042;-66
2021/09/01 00:30:15;;;;;;;31.73;18.63;;;;;;;10.92;100.00;101402.94;4955232;28;20050;-66
2021/09/01 00:32:41;;;;;;;39.40;19.95;;;;;;;10.92;100.00;101399.41;4955883;28;20031;-66
2021/09/01 00:35:09;;;;;;;38.45;21.15;;;;;;;11.03;100.00;101400.69;4953329;28;20508;-66
2021/09/01 00:37:35;;;;;;;45.50;20.35;;;;;;;11.07;100.00;101408.13;4960000;28;20510;-67
2021/09/01 00:40:00;;;;;;;43.38;19.52;;;;;;;11.01;99.94;101398.16;4959585;28;20027;-67
2021/09/01 00:42:26;;;;;;;40.55;20.75;;;;;;;11.11;99.79;101404.00;4957865;28;20504;-67
2021/09/01 00:44:52;;;;;;;41.83;20.15;;;;;;;11.11;99.25;101398.59;4959813;28;20037;-67
2021/09/01 00:47:18;;;;;;;41.13;21.27;;;;;;;11.09;99.61;101403.38;4954621;28;20098;-67
2021/09/01 00:49:44;;;;;;;40.97;20.35;;;;;;;11.09;99.29;101399.84;4962140;28;20037;-68
2021/09/01 00:52:12;;;;;;;44.88;21.05;;;;;;;11.02;99.18;101397.13;4955441;28;20079;-65
2021/09/01 00:54:38;;;;;;;44.67;20.90;;;;;;;11.02;99.58;101399.84;4955602;28;20031;-67
2021/09/01 00:57:06;;;;;;;42.92;22.15;;;;;;;10.96;99.44;101404.19;4956037;28;20114;-68
2021/09/01 00:59:35;;;;;;;50.40;21.67;;;;;;;10.87;100.00;101401.88;4959644;28;20108;-68
2021/09/01 01:02:02;;;;;;;48.38;22.30;;;;;;;10.71;100.00;101403.91;4955587;28;21092;-68
2021/09/01 01:04:28;;;;;;;51.97;24.38;;;;;;;10.61;100.00;101398.06;4946275;28;20042;-68
2021/09/01 01:07:12;;;;;;;50.83;24.67;;;;;;;10.55;100.00;101407.78;4955137;28;20081;-67
2021/09/01 01:09:39;;;;;;;;;;;;;;;10.43;100.00;101415.63;4958788;28;20031;-67
2021/09/01 01:12:13;;;;;;;49.20;24.73;;;;;;;10.39;100.00;101406.25;4957829;28;19921;-66
2021/09/01 01:14:41;;;;;;;59.63;24.90;;;;;;;10.31;100.00;101401.84;4954279;28;20042;-67
2021/09/01 01:17:08;;;;;;;44.08;24.48;;;;;;;10.22;100.00;101392.28;4956054;28;20038;-67
2021/09/01 01:19:38;;;;;;;49.33;24.73;;;;;;;10.10;100.00;101400.91;4955515;28;20118;-66
2021/09/01 01:22:04;;;;;;;59.67;25.83;;;;;;;10.08;100.00;101400.28;4958258;28;20071;-67
2021/09/01 01:24:45;;;;;;;59.95;26.05;;;;;;;10.03;100.00;101405.41;4954873;28;20125;-67
2021/09/01 01:27:39;;;;;;;50.58;27.38;;;;;;;9.96;100.00;101410.78;4953058;28;20110;-67
2021/09/01 01:30:07;;;;;;;53.55;26.45;;;;;;;9.90;100.00;101405.34;4951336;28;20117;-66
2021/09/01 01:32:33;;;;;;;47.55;25.80;;;;;;;9.88;100.00;101402.88;4953108;28;20043;-67
2021/09/01 01:34:59;;;;;;;56.38;26.92;;;;;;;9.84;100.00;101403.44;4959998;28;20034;-67
2021/09/01 01:37:24;;;;;;;55.58;27.83;;;;;;;9.84;100.00;101398.91;4955679;28;20039;-67
2021/09/01 01:39:50;;;;;;;52.97;27.67;;;;;;;9.88;100.00;101397.47;4955788;28;20034;-66
2021/09/01 01:42:16;;;;;;;73.28;29.98;;;;;;;9.93;100.00;101394.19;4956260;28;20114;-67
2021/09/01 01:44:42;;;;;;;58.58;29.83;;;;;;;10.04;100.00;101393.63;4958973;28;20031;-67
2021/09/01 01:47:08;;;;;;;61.25;29.98;;;;;;;10.14;100.00;101395.13;4956860;28;20035;-68
2021/09/01 01:49:34;;;;;;;68.75;31.13;;;;;;;10.17;100.00;101392.88;4945479;28;20066;-67
2021/09/01 01:52:00;;;;;;;59.80;29.67;;;;;;;10.22;100.00;101381.50;4950776;28;20031;-67
2021/09/01 01:54:26;;;;;;;58.88;29.67;;;;;;;10.34;100.00;101389.84;4954481;28;20396;-67
2021/09/01 01:56:52;;;;;;;68.45;30.33;;;;;;;10.33;100.00;101388.19;4952005;28;20385;-67
2021/09/01 01:59:17;;;;;;;53.97;29.40;;;;;;;10.40;100.00;101392.59;4953335;28;20173;-67
2021/09/01 02:01:43;;;;;;;55.85;28.05;;;;;;;10.42;100.00;101396.94;4951984;28;20106;-66
2021/09/01 02:04:10;;;;;;;56.42;27.05;;;;;;;10.48;100.00;101393.44;4952125;28;20528;-67
2021/09/01 02:06:36;;;;;;;65.90;29.60;;;;;;;10.56;100.00;101395.97;4957278;28;20062;-66
2021/09/01 02:09:02;;;;;;;45.80;25.77;;;;;;;10.60;100.00;101399.09;4960095;28;20039;-67
2021/09/01 02:11:27;;;;;;;50.83;25.60;;;;;;;10.61;100.00;101393.53;4956141;28;20114;-66
2021/09/01 02:13:53;;;;;;;44.97;26.10;;;;;;;10.66;100.00;101396.44;4954506;28;20051;-66
2021/09/01 02:16:18;;;;;;;50.13;24.85;;;;;;;10.65;100.00;101393.94;4957062;28;20031;-66
2021/09/01 02:18:44;;;;;;;38.17;23.23;;;;;;;10.67;100.00;101389.19;4956133;28;20114;-67
2021/09/01 02:21:09;;;;;;;37.63;23.08;;;;;;;10.67;100.00;101394.56;4956722;28;20036;-67
2021/09/01 02:23:35;;;;;;;43.47;23.23;;;;;;;10.72;100.00;101381.31;4954611;28;20055;-67
2021/09/01 02:26:00;;;;;;;41.63;22.88;;;;;;;10.74;100.00;101375.72;4957801;28;20035;-67
2021/09/01 02:28:26;;;;;;;44.08;21.88;;;;;;;10.80;100.00;101372.22;4954732;28;20559;-68
2021/09/01 02:30:52;;;;;;;46.38;21.45;;;;;;;10.84;99.49;101384.25;4956876;28;20039;-67
2021/09/01 02:33:18;;;;;;;36.78;20.48;;;;;;;10.87;99.64;101375.75;4952745;28;20031;-67
2021/09/01 02:35:44;;;;;;;38.10;19.73;;;;;;;10.86;99.18;101378.66;4954636;28;20054;-67
2021/09/01 02:38:11;;;;;;;36.95;20.13;;;;;;;10.87;99.06;101381.16;4951954;28;20030;-66
2021/09/01 02:40:36;;;;;;;44.58;19.67;;;;;;;10.92;99.01;101383.22;4953989;28;20028;-67
2021/09/01 02:43:02;;;;;;;36.15;18.95;;;;;;;11.03;98.16;101382.63;4938627;28;20041;-65
2021/09/01 02:45:28;;;;;;;32.80;18.85;;;;;;;11.05;98.33;101379.72;4952111;28;20047;-66
2021/09/01 02:47:53;;;;;;;37.58;19.58;;;;;;;10.97;98.26;101380.75;4952766;28;20054;-68
2021/09/01 02:50:19;;;;;;;32.78;18.85;;;;;;;11.03;98.45;101379.09;4952246;28;20027;-68
2021/09/01 02:52:44;;;;;;;34.67;18.38;;;;;;;11.08;97.96;101380.13;4957325;28;20035;-67
2021/09/01 02:55:11;;;;;;;35.75;19.13;;;;;;;11.21;97.11;101378.50;4953776;28;20340;-67
2021/09/01 02:57:38;;;;;;;31.98;18.10;;;;;;;11.12;97.48;101383.25;4956595;28;20033;-67
2021/09/01 03:00:05;;;;;;;39.05;19.23;;;;;;;11.10;97.76;101380.75;4951091;28;20154;-67
2021/09/01 03:02:31;;;;;;;32.15;18.35;;;;;;;11.17;97.40;101379.94;4953082;28;20031;-67
2021/09/01 03:04:57;;;;;;;31.23;18.63;;;;;;;11.13;97.83;101377.66;4953051;28;20115;-67
2021/09/01 03:07:23;;;;;;;36.33;19.58;;;;;;;11.17;97.56;101372.69;4952473;28;20140;-68
2021/09/01 03:09:48;;;;;;;33.20;18.33;;;;;;;11.20;97.40;101374.97;4952950;28;20034;-67
2021/09/01 03:12:14;;;;;;;31.88;18.17;;;;;;;11.26;97.43;101370.59;4955244;28;20592;-67
2021/09/01 03:14:39;;;;;;;32.83;17.48;;;;;;;11.31;96.84;101376.22;4955223;28;20126;-66
2021/09/01 03:17:05;;;;;;;27.88;16.98;;;;;;;11.29;96.85;101375.59;4959060;28;20046;-67
2021/09/01 03:19:31;;;;;;;40.13;17.60;;;;;;;11.28;97.10;101373.94;4957439;28;20535;-66
2021/09/01 03:21:57;;;;;;;28.42;16.15;;;;;;;11.23;97.69;101373.72;4953632;28;20050;-67
2021/09/01 03:24:22;;;;;;;27.17;15.88;;;;;;;11.30;97.61;101366.47;4958193;28;20038;-67
2021/09/01 03:26:48;;;;;;;24.30;14.50;;;;;;;11.32;97.03;101367.06;4953861;28;20472;-65
2021/09/01 03:29:13;;;;;;;26.17;14.35;;;;;;;11.24;97.20;101362.75;4956943;28;20555;-68
2021/09/01 03:31:39;;;;;;;24.48;14.05;;;;;;;11.19;97.25;101373.31;4955546;28;20120;-67
2021/09/01 03:34:04;;;;;;;28.73;13.82;;;;;;;11.20;97.42;101363.34;4955639;28;20073;-67
2021/09/01 03:36:30;;;;;;;22.35;13.20;;;;;;;11.11;97.69;101357.34;4952386;28;20086;-67
2021/09/01 03:38:55;;;;;;;27.08;12.75;;;;;;;11.16;97.75;101345.91;4956690;28;20843;-67
2021/09/01 03:41:21;;;;;;;25.63;12.02;;;;;;;11.16;97.37;101346.75;4952175;28;20027;-66
2021/09/01 03:43:47;;;;;;;26.83;12.02;;;;;;;11.13;97.21;101356.09;4953404;28;20358;-67
2021/09/01 03:46:13;;;;;;;22.60;11.20;;;;;;;11.11;97.22;101347.38;4952448;28;20059;-67
2021/09/01 03:48:39;;;;;;;25.63;11.07;;;;;;;11.08;97.06;101346.97;4951953;28;20027;-67
2021/09/01 03:51:04;;;;;;;24.17;10.10;;;;;;;11.15;96.08;101341.56;4955335;28;20392;-67
2021/09/01 03:53:30;;;;;;;19.77;10.70;;;;;;;11.11;95.95;101333.88;4955516;28;20034;-67
2021/09/01 03:55:55;;;;;;;19.83;10.35;;;;;;;11.22;96.17;101334.31;4954755;28;20070;-67
2021/09/01 03:58:21;;;;;;;25.38;11.77;;;;;;;11.16;96.16;101327.03;4967969;28;20089;-67
2021/09/01 04:00:48;;;;;;;23.52;10.70;;;;;;;11.17;96.28;101331.41;4962132;28;20034;-67
2021/09/01 04:03:13;;;;;;;26.85;11.93;;;;;;;11.15;96.65;101333.47;4960066;28;20194;-67
2021/09/01 04:05:39;;;;;;;27.55;11.77;;;;;;;11.18;96.81;101331.19;4964617;28;20480;-67
2021/09/01 04:08:06;;;;;;;30.45;12.63;;;;;;;11.21;96.44;101332.63;4968410;28;20051;-65
2021/09/01 04:10:31;;;;;;;28.02;11.15;;;;;;;11.22;96.33;101328.91;4961154;28;20403;-66
2021/09/01 04:12:57;;;;;;;17.83;11.38;;;;;;;11.26;96.45;101324.75;4963244;28;20031;-67
2021/09/01 04:15:23;;;;;;;25.50;11.80;;;;;;;11.21;96.52;101320.00;4968045;28;20109;-66
2021/09/01 04:17:48;;;;;;;24.50;12.27;;;;;;;11.23;96.53;101326.00;4964857;28;20031;-67
2021/09/01 04:20:14;;;;;;;29.70;13.43;;;;;;;11.30;96.30;101319.78;4959431;28;20035;-66
2021/09/01 04:22:39;;;;;;;22.13;12.27;;;;;;;11.25;96.53;101315.84;4965527;28;20027;-66
2021/09/01 04:25:06;;;;;;;22.20;12.02;;;;;;;11.22;96.82;101316.25;4963246;28;20053;-67
2021/09/01 04:27:31;;;;;;;24.23;11.30;;;;;;;11.34;95.92;101313.75;4962697;28;20064;-66
2021/09/01 04:29:57;;;;;;;28.40;13.10;;;;;;;11.38;95.47;101319.56;4970030;28;20035;-66
2021/09/01 04:32:22;;;;;;;29.27;12.40;;;;;;;11.50;94.97;101317.91;4963845;28;20026;-66
2021/09/01 04:34:50;;;;;;;21.08;13.60;;;;;;;11.43;95.48;101317.06;4963462;28;20041;-66
2021/09/01 04:37:15;;;;;;;26.42;12.75;;;;;;;11.43;95.56;101317.88;4971542;28;20039;-66
2021/09/01 04:39:41;;;;;;;31.83;13.55;;;;;;;11.37;95.94;101318.72;4964339;28;20027;-67
2021/09/01 04:42:06;;;;;;;33.13;14.43;;;;;;;11.43;95.91;101314.38;4963503;28;20035;-66
2021/09/01 04:44:32;;;;;;;26.02;13.32;;;;;;;11.45;95.79;101306.91;4955104;28;20639;-66
2021/09/01 04:46:59;;;;;;;27.70;13.55;;;;;;;11.39;95.81;101305.84;4960887;28;20547;-66
2021/09/01 04:49:25;;;;;;;30.48;14.05;;;;;;;11.44;95.81;101307.94;4971626;28;20487;-66
2021/09/01 04:51:50;;;;;;;28.60;13.80;;;;;;;11.39;96.28;101319.34;4968836;28;20031;-66
2021/09/01 04:54:16;;;;;;;28.92;14.30;;;;;;;11.39;96.33;101315.84;4967214;28;20038;-66
2021/09/01 04:56:42;;;;;;;35.55;14.85;;;;;;;11.32;96.62;101313.13;4956013;28;20469;-66
2021/09/01 04:59:08;;;;;;;35.05;13.93;;;;;;;11.41;96.62;101324.56;4973022;28;20031;-66
2021/09/01 05:01:34;;;;;;;29.33;14.50;;;;;;;11.45;96.06;101322.25;4964063;28;20416;-66
2021/09/01 05:04:00;;;;;;;28.45;14.23;;;;;;;11.31;96.83;101319.56;4966768;28;20507;-66
2021/09/01 05:06:27;;;;;;;28.60;14.93;;;;;;;11.38;96.22;101322.28;4965112;28;20039;-66
2021/09/01 05:08:53;;;;;;;36.63;14.95;;;;;;;11.34;96.14;101319.16;4964321;28;20066;-66
2021/09/01 05:11:19;;;;;;;35.45;15.02;;;;;;;11.34;96.43;101318.34;4968062;28;20488;-66
2021/09/01 05:13:45;;;;;;;31.38;14.45;;;;;;;11.35;96.61;101323.50;4969609;28;20046;-67
2021/09/01 05:16:11;;;;;;;35.90;14.88;;;;;;;11.36;96.67;101324.34;4955554;28;20027;-66
2021/09/01 05:18:36;;;;;;;25.58;14.80;;;;;;;11.39;96.57;101322.03;4953032;28;20543;-67
2021/09/01 05:21:05;;;;;;;29.70;13.88;;;;;;;11.40;96.04;101323.69;4956350;28;20039;-66
2021/09/01 05:23:33;;;;;;;30.23;14.38;;;;;;;11.41;96.63;101328.06;4956989;28;20034;-66
2021/09/01 05:26:01;;;;;;;34.63;14.50;;;;;;;11.41;96.53;101332.66;4957296;28;20397;-66
2021/09/01 05:28:28;;;;;;;30.48;14.15;;;;;;;11.42;96.30;101327.03;4954575;28;20043;-68
2021/09/01 05:30:55;;;;;;;31.23;14.32;;;;;;;11.39;96.09;101329.31;4938342;28;20038;-68
2021/09/01 05:33:21;;;;;;;30.58;13.80;;;;;;;11.36;96.25;101338.66;4964230;28;20117;-72
2021/09/01 05:35:49;;;;;;;38.55;14.77;;;;;;;11.39;96.63;101338.22;4957658;28;20852;-72
2021/09/01 05:38:18;;;;;;;33.00;14.32;;;;;;;11.40;96.12;101341.78;4965215;28;20027;-71
2021/09/01 05:40:45;;;;;;;38.67;15.05;;;;;;;11.33;96.53;101330.97;4959579;28;20043;-70
2021/09/01 05:43:11;;;;;;;36.88;14.95;;;;;;;11.34;96.62;101332.63;4955914;28;20026;-70
2021/09/01 05:45:40;;;;;;;35.92;13.95;;;;;;;11.39;96.71;101337.41;4959238;28;20031;-71
2021/09/01 05:48:07;;;;;;;28.25;15.52;;;;;;;11.49;96.03;101334.31;4953113;28;20528;-72
2021/09/01 05:50:33;;;;;;;37.03;18.02;;;;;;;11.42;96.17;101327.03;4954385;28;20019;-71
2021/09/01 05:52:59;;;;;;;26.10;14.82;;;;;;;11.44;96.10;101340.31;4952954;28;20065;-71
2021/09/01 05:55:30;;;;;;;32.30;15.45;;;;;;;11.47;95.76;101333.66;4956554;28;20500;-71
2021/09/01 05:58:00;;;;;;;31.48;15.48;;;;;;;11.46;96.25;101337.41;4958108;28;20066;-70
2021/09/01 06:00:32;;;;;;;27.05;13.70;;;;;;;11.51;95.56;101337.63;4951757;28;20102;-71
2021/09/01 06:03:23;;;;;;;32.28;14.55;;;;;;;11.51;95.31;101335.75;4954621;28;20504;-71
2021/09/01 06:05:54;;;;;;;29.80;13.80;;;;;;;11.54;95.47;101339.91;4954273;28;20027;-71
2021/09/01 06:08:30;;;;;;;30.55;13.98;;;;;;;11.55;96.15;101336.97;4961052;28;20093;-71
2021/09/01 06:10:59;;;;;;;24.35;13.32;;;;;;;11.60;94.87;101330.13;4958273;28;20035;-72
2021/09/01 06:13:25;;;;;;;28.63;14.05;;;;;;;11.60;94.54;101335.53;4950247;28;20051;-71
2021/09/01 06:15:51;;;;;;;38.05;14.63;;;;;;;11.51;95.25;101334.94;4950324;28;20042;-72
2021/09/01 06:18:16;;;;;;;33.60;13.00;;;;;;;11.56;94.93;101335.13;4957450;28;20027;-71
2021/09/01 06:20:42;;;;;;;27.83;12.82;;;;;;;11.55;95.19;101341.56;4958924;28;20539;-72
2021/09/01 06:23:08;;;;;;;28.00;12.95;;;;;;;11.57;94.82;101351.09;4958022;28;20050;-71
2021/09/01 06:25:35;;;;;;;27.92;13.38;;;;;;;11.58;94.91;101351.94;4960386;28;20141;-71
2021/09/01 06:28:01;;;;;;;29.65;13.77;;;;;;;11.64;94.61;101347.56;4947169;28;20570;-71
2021/09/01 06:30:27;;;;;;;29.90;13.18;;;;;;;11.60;94.99;101354.41;4949871;28;20038;-69
2021/09/01 06:32:52;;;;;;;32.75;13.02;;;;;;;11.53;95.16;101357.94;4955739;28;20105;-70
2021/09/01 06:35:18;;;;;;;29.58;12.38;;;;;;;11.63;94.73;101349.44;4960378;28;20059;-71
2021/09/01 06:37:45;;;;;;;30.20;12.85;;;;;;;11.66;94.82;101349.03;4953657;28;20035;-72
2021/09/01 06:40:14;;;;;;;23.05;12.23;;;;;;;11.79;94.23;101355.44;4952778;28;20027;-71
2021/09/01 06:42:40;;;;;;;26.52;11.80;;;;;;;11.68;94.22;101356.88;4958429;28;20066;-71
2021/09/01 06:45:07;;;;;;;26.60;11.63;;;;;;;11.70;94.88;101361.06;4951202;28;20087;-71
2021/09/01 06:47:45;;;;;;;37.70;12.73;;;;;;;11.70;94.93;101354.81;4953486;28;20046;-71
2021/09/01 06:50:14;;;;;;;26.15;11.52;;;;;;;11.84;93.93;101359.16;4953149;28;20178;-70
2021/09/01 06:52:41;;;;;;;27.80;11.10;;;;;;;11.81;93.93;101358.75;4955717;28;20035;-71
2021/09/01 06:55:08;;;;;;;27.00;12.65;;;;;;;11.80;94.44;101354.38;4953399;28;20047;-71
2021/09/01 06:57:34;;;;;;;33.53;12.25;;;;;;;11.79;94.38;101356.25;4954448;28;20428;-73
2021/09/01 07:00:01;;;;;;;28.42;10.77;;;;;;;11.82;94.63;101363.13;4952597;28;20031;-71
2021/09/01 07:02:27;;;;;;;26.40;11.02;;;;;;;11.90;94.55;101364.75;4953248;28;20043;-71
2021/09/01 07:04:53;;;;;;;25.35;11.90;;;;;;;11.78;95.12;101365.38;4954579;28;20050;-71
2021/09/01 07:07:22;;;;;;;25.98;11.35;;;;;;;11.75;95.66;101362.28;4954421;28;20047;-71
2021/09/01 07:09:48;;;;;;;25.02;10.70;;;;;;;11.71;96.13;101362.72;4952802;28;20110;-71
2021/09/01 07:12:14;;;;;;;29.45;12.88;;;;;;;11.68;96.67;101363.13;4966376;28;20039;-72
2021/09/01 07:14:39;;;;;;;29.27;11.63;;;;;;;11.68;97.34;101365.00;4954174;28;20530;-71
2021/09/01 07:17:05;;;;;;;30.05;11.70;;;;;;;11.71;96.81;101372.66;4945378;28;20559;-71
2021/09/01 07:19:30;;;;;;;31.60;12.55;;;;;;;11.62;97.04;101365.81;4952767;28;20042;-70
2021/09/01 07:21:57;;;;;;;33.00;13.85;;;;;;;11.61;97.71;101374.97;4954142;28;20065;-71
2021/09/01 07:24:23;;;;;;;27.45;13.40;;;;;;;11.63;98.05;101373.72;4962327;28;20031;-70
2021/09/01 07:26:49;;;;;;;27.23;14.35;;;;;;;11.62;97.90;101368.53;4956307;28;20499;-71
2021/09/01 07:29:14;;;;;;;35.90;15.70;;;;;;;11.58;98.56;101370.84;4956951;28;20443;-71
2021/09/01 07:31:40;;;;;;;35.92;16.20;;;;;;;11.54;98.64;101367.69;4953657;28;20504;-71
2021/09/01 07:34:05;;;;;;;36.28;17.42;;;;;;;11.60;99.00;101370.59;4953129;28;20568;-70
2021/09/01 07:36:31;;;;;;;31.70;17.23;;;;;;;11.58;99.60;101370.84;4951756;28;20532;-70
2021/09/01 07:38:57;;;;;;;36.95;18.20;;;;;;;11.58;99.88;101373.53;4953846;28;20031;-72
2021/09/01 07:41:23;;;;;;;35.55;17.98;;;;;;;11.65;99.59;101373.50;4962115;28;20054;-72
2021/09/01 07:43:49;;;;;;;32.80;17.60;;;;;;;11.62;99.11;101374.78;4962239;28;20503;-71
2021/09/01 07:46:14;;;;;;;34.50;17.15;;;;;;;11.71;99.48;101373.50;4966172;28;20043;-70
2021/09/01 07:48:40;;;;;;;34.30;17.83;;;;;;;11.68;98.99;101367.69;4965474;28;20480;-70
2021/09/01 07:51:06;;;;;;;41.50;18.08;;;;;;;11.75;98.65;101375.78;4968380;28;20648;-71
2021/09/01 07:53:32;;;;;;;36.78;18.20;;;;;;;11.76;98.68;101372.88;4960018;28;20043;-71
2021/09/01 07:55:57;;;;;;;27.52;16.33;;;;;;;11.87;98.47;101371.41;4964607;28;20067;-71
2021/09/01 07:58:23;;;;;;;35.63;16.17;;;;;;;11.91;97.70;101380.75;4959981;28;20027;-71
2021/09/01 08:00:49;;;;;;;32.00;14.32;;;;;;;12.08;96.72;101380.31;4959596;28;20039;-71
2021/09/01 08:03:14;;;;;;;28.98;15.65;;;;;;;12.07;95.93;101382.16;4961275;28;20039;-71
2021/09/01 08:05:42;;;;;;;31.55;14.77;;;;;;;12.12;96.06;101376.16;4962814;28;20043;-71
2021/09/01 08:08:08;;;;;;;24.23;14.10;;;;;;;12.10;95.14;101380.94;4960960;28;20397;-71
2021/09/01 08:10:33;;;;;;;27.60;14.13;;;;;;;12.14;94.94;101377.56;4957142;28;20039;-71
2021/09/01 08:12:59;;;;;;;33.55;14.45;;;;;;;12.19;95.50;101376.94;4969116;28;20035;-72
2021/09/01 08:15:24;;;;;;;28.02;13.85;;;;;;;12.18;95.02;101374.44;4968514;28;20499;-70
2021/09/01 08:17:50;;;;;;;27.02;14.77;;;;;;;12.24;95.02;101381.69;4970391;28;20039;-69
2021/09/01 08:20:16;;;;;;;33.75;14.77;;;;;;;12.31;93.94;101382.50;4958023;28;20023;-69
2021/09/01 08:22:42;;;;;;;23.65;13.70;;;;;;;12.34;93.97;101382.06;4957656;28;20031;-69
2021/09/01 08:25:11;;;;;;;19.30;12.00;;;;;;;12.35;93.47;101389.13;4962197;28;20099;-70
2021/09/01 08:27:38;;;;;;;27.98;12.57;;;;;;;12.41;93.46;101391.00;4958330;28;20121;-70
2021/09/01 08:30:06;;;;;;;23.05;12.13;;;;;;;12.43;93.32;101388.94;4963994;28;20030;-70
2021/09/01 08:32:32;;;;;;;24.17;11.88;;;;;;;12.52;93.26;101389.50;4965669;28;20039;-71
2021/09/01 08:34:57;;;;;;;22.98;11.23;;;;;;;12.58;92.25;101393.22;4957283;28;20049;-70
2021/09/01 08:37:23;;;;;;;21.92;10.45;;;;;;;12.62;91.19;101390.91;4961943;28;20113;-70
2021/09/01 08:39:48;;;;;;;18.13;9.73;;;;;;;12.69;91.20;101395.25;4971157;28;20034;-69
2021/09/01 08:42:18;;;;;;;17.10;9.32;;;;;;;12.82;90.43;101393.50;4961271;28;20124;-69
2021/09/01 08:44:44;;;;;;;16.33;9.38;;;;;;;12.96;90.08;101397.78;4966342;28;20031;-69
2021/09/01 08:47:11;;;;;;;15.63;8.73;;;;;;;12.92;90.42;101398.44;4957038;28;20061;-69
2021/09/01 08:49:37;;;;;;;17.38;8.50;;;;;;;13.06;90.62;101401.91;4965569;28;20127;-70
2021/09/01 08:52:03;;;;;;;16.73;8.20;;;;;;;13.19;88.55;101404.50;4958264;28;20114;-69
2021/09/01 08:54:28;;;;;;;10.98;7.43;;;;;;;13.15;88.27;101409.50;4958560;28;20034;-69
2021/09/01 08:56:55;;;;;;;14.65;7.63;;;;;;;13.24;88.24;101418.22;4958219;28;20134;-71
2021/09/01 08:59:21;;;;;;;20.00;8.23;;;;;;;13.10;88.72;101406.63;4960713;28;20039;-70
2021/09/01 09:01:49;;;;;;;17.38;8.25;;;;;;;12.96;89.30;101416.72;4956554;28;20035;-70
2021/09/01 09:04:30;;;;;;;13.68;7.80;;;;;;;12.96;90.55;101408.63;4952553;28;20122;-70
2021/09/01 09:06:59;;;;;;;14.70;7.70;;;;;;;13.02;90.84;101401.50;4952143;28;20508;-71
2021/09/01 09:09:30;;;;;;;18.38;7.90;;;;;;;12.91;92.18;101405.72;4959436;28;20050;-70
2021/09/01 09:11:58;;;;;;;14.48;8.40;;;;;;;12.91;93.30;101410.28;4952045;28;20058;-71
2021/09/01 09:14:29;;;;;;;18.30;8.25;;;;;;;12.70;94.18;101405.00;4951108;28;20035;-70
2021/09/01 09:17:03;;;;;;;18.08;9.10;;;;;;;12.41;95.21;101403.69;4960147;28;20377;-70
2021/09/01 09:19:43;;;;;;;19.83;9.05;;;;;;;12.37;96.63;101410.56;4958801;28;20040;-69
2021/09/01 09:22:09;;;;;;;21.77;10.25;;;;;;;12.43;96.80;101396.19;4946025;28;20046;-70
2021/09/01 09:24:35;;;;;;;17.10;10.02;;;;;;;12.38;96.81;101398.69;4958729;28;20075;-70
2021/09/01 09:27:00;;;;;;;24.40;11.27;;;;;;;12.32;97.14;101405.78;4956175;28;20404;-70
2021/09/01 09:29:30;;;;;;;25.98;11.02;;;;;;;12.41;97.78;101398.28;4950623;28;20039;-70
2021/09/01 09:32:06;;;;;;;20.65;10.73;;;;;;;12.54;97.45;101400.91;4960122;28;20119;-69
2021/09/01 09:34:39;;;;;;;23.45;11.25;;;;;;;12.80;97.28;101396.41;4953044;28;20089;-70
2021/09/01 09:37:11;;;;;;;18.40;11.00;;;;;;;12.92;95.95;101391.16;4955595;28;20043;-70
2021/09/01 09:39:48;;;;;;;18.33;11.10;;;;;;;13.05;94.94;101394.81;4953592;28;20142;-70
2021/09/01 09:42:40;;;;;;;21.65;11.10;;;;;;;13.07;93.62;101396.25;4955658;28;20452;-71
2021/09/01 09:45:26;;;;;;;22.50;11.05;;;;;;;13.00;93.88;101404.44;4965326;28;20094;-71
2021/09/01 09:47:55;;;;;;;22.65;10.35;;;;;;;13.09;93.39;101404.97;4965925;28;20062;-67
2021/09/01 09:50:21;;;;;;;24.52;11.40;;;;;;;13.23;93.76;101403.03;4963971;28;20045;-69
2021/09/01 09:52:49;;;;;;;15.55;10.60;;;;;;;13.48;92.33;101404.13;4960181;28;20035;-69
2021/09/01 09:55:20;;;;;;;20.55;9.85;;;;;;;13.56;89.60;101403.84;4953871;28;20074;-70
2021/09/01 09:57:49;;;;;;;20.85;9.95;;;;;;;13.55;89.63;101405.72;4960767;28;20026;-69
2021/09/01 10:00:16;;;;;;;21.23;9.38;;;;;;;13.58;88.74;101399.84;4961562;28;20030;-69
2021/09/01 10:02:43;;;;;;;17.73;9.20;;;;;;;13.48;89.26;101399.53;4963623;28;20031;-70
2021/09/01 10:05:13;;;;;;;25.80;9.85;;;;;;;13.63;88.99;101392.94;4959635;28;20039;-69
2021/09/01 10:07:39;;;;;;;19.95;8.90;;;;;;;13.65;88.44;101398.97;4964369;28;20389;-70
2021/09/01 10:10:05;;;;;;;19.52;8.93;;;;;;;13.66;87.97;101403.31;4961596;28;20041;-69
2021/09/01 10:12:31;;;;;;;37.75;9.40;;;;;;;13.71;87.07;101403.50;4963977;28;20118;-69
2021/09/01 10:15:01;;;;;;;48.72;11.50;;;;;;;13.91;87.39;101397.88;4963494;28;20101;-69
2021/09/01 10:17:28;;;;;;;17.52;8.75;;;;;;;13.93;86.13;101393.06;4934244;28;20043;-69
2021/09/01 10:19:54;;;;;;;15.90;8.55;;;;;;;14.03;85.17;101398.81;4962856;28;20035;-69
2021/09/01 10:22:20;;;;;;;16.73;8.43;;;;;;;13.98;84.77;101401.34;4963687;28;20077;-69
2021/09/01 10:24:49;;;;;;;20.70;8.45;;;;;;;14.10;83.64;101403.31;4960557;28;20067;-69
2021/09/01 10:27:19;;;;;;;15.18;8.18;;;;;;;14.04;84.22;101394.19;4965024;28;20130;-69
2021/09/01 10:29:59;;;;;;;21.35;9.23;;;;;;;14.26;83.02;101396.47;4952246;28;20039;-69
2021/09/01 10:32:28;;;;;;;17.42;8.63;;;;;;;14.26;83.30;101404.63;4957318;28;20043;-69
2021/09/01 10:35:12;;;;;;;17.50;8.82;;;;;;;14.09;82.86;101407.91;4957716;28;20061;-69
2021/09/01 10:37:43;;;;;;;14.32;8.43;;;;;;;14.09;83.12;101398.94;4965336;28;20035;-70
2021/09/01 10:40:21;;;;;;;15.95;8.23;;;;;;;14.13;83.22;101395.56;4956524;28;20093;-70
2021/09/01 10:42:52;;;;;;;22.52;9.20;;;;;;;14.31;82.53;101385.78;4965898;28;20104;-71
2021/09/01 10:45:20;;;;;;;17.80;9.00;;;;;;;14.32;81.78;101385.53;4962052;28;20035;-71
2021/09/01 10:48:08;;;;;;;31.27;9.35;;;;;;;14.32;81.44;101377.41;4958381;28;20034;-71
2021/09/01 10:50:50;;;;;;;25.30;9.65;;;;;;;14.35;81.47;101381.56;4958914;28;20043;-71
2021/09/01 10:53:18;;;;;;;27.63;9.73;;;;;;;14.13;81.57;101387.41;4951223;28;20101;-71
2021/09/01 10:56:01;;;;;;;19.05;9.10;;;;;;;14.17;82.22;101390.53;4962442;28;20046;-71
2021/09/01 10:58:41;;;;;;;23.50;9.07;;;;;;;14.16;82.10;101383.44;4952296;28;20043;-70
2021/09/01 11:01:08;;;;;;;19.02;9.95;;;;;;;14.07;82.02;101385.63;4938406;28;20081;-71
2021/09/01 11:03:36;;;;;;;19.42;9.30;;;;;;;14.22;81.30;101381.72;4950716;28;20455;-71
2021/09/01 11:06:11;;;;;;;22.15;10.23;;;;;;;14.23;81.49;101383.38;4949948;28;20102;-70
2021/09/01 11:08:37;;;;;;;19.17;10.02;;;;;;;14.26;81.45;101378.31;4952584;28;20040;-70
2021/09/01 11:11:03;;;;;;;22.35;10.23;;;;;;;14.40;81.53;101389.00;4950796;28;20491;-71